createdAt,value
2017-02-06T06:14:00.548Z,0
2017-02-06T06:15:10.393Z,0
2017-02-06T06:16:20.707Z,0
2017-02-06T06:17:30.633Z,4
2017-02-06T06:18:40.544Z,4
2017-02-06T06:19:50.754Z,4
2017-02-06T06:21:00.998Z,0
2017-02-06T06:22:10.948Z,0
2017-02-06T06:23:21.263Z,0
2017-02-06T06:24:31.533Z,4
2017-02-06T06:25:41.272Z,4
2017-02-06T06:26:51.522Z,4
2017-02-06T06:28:01.754Z,8
2017-02-06T06:29:12.260Z,4
2017-02-06T06:30:22.625Z,8
2017-02-06T06:31:33.272Z,12
2017-02-06T06:32:43.584Z,12
2017-02-06T06:33:53.814Z,12
2017-02-06T06:35:04.073Z,12
2017-02-06T06:36:14.019Z,16
2017-02-06T06:37:24.568Z,16
2017-02-06T06:38:34.812Z,16
2017-02-06T06:39:45.044Z,20
2017-02-06T06:40:55.352Z,24
2017-02-06T06:42:05.187Z,24
2017-02-06T06:43:15.722Z,24
2017-02-06T06:44:25.605Z,24
2017-02-06T06:45:36.132Z,28
2017-02-06T06:46:46.442Z,36
2017-02-06T06:47:56.727Z,40
2017-02-06T06:49:06.878Z,44
2017-02-06T06:50:16.738Z,48
2017-02-06T06:51:26.605Z,60
2017-02-06T06:52:36.927Z,64
2017-02-06T06:53:46.810Z,68
2017-02-06T06:54:56.954Z,84
2017-02-06T06:56:06.804Z,100
2017-02-06T06:57:16.659Z,108
2017-02-06T06:58:26.591Z,104
2017-02-06T06:59:36.858Z,96
2017-02-06T07:00:47.401Z,92
2017-02-06T07:01:57.675Z,96
2017-02-06T07:03:07.521Z,104
2017-02-06T07:04:17.406Z,116
2017-02-06T07:05:27.278Z,120
2017-02-06T07:06:37.395Z,136
2017-02-06T07:07:47.250Z,152
2017-02-06T07:08:56.677Z,156
2017-02-06T07:10:06.607Z,164
2017-02-06T07:11:16.045Z,184
2017-02-06T07:12:26.206Z,200
2017-02-06T07:13:36.529Z,196
2017-02-06T07:14:47.043Z,200
2017-02-06T07:15:57.299Z,200
2017-02-06T07:17:07.212Z,224
2017-02-06T07:18:17.321Z,200
2017-02-06T07:19:27.251Z,232
2017-02-06T07:20:37.583Z,256
2017-02-06T07:21:47.901Z,276
2017-02-06T07:22:58.150Z,264
2017-02-06T07:24:08.651Z,244
2017-02-06T07:25:18.962Z,272
2017-02-06T07:26:28.845Z,288
2017-02-06T07:27:39.093Z,284
2017-02-06T07:28:48.948Z,300
2017-02-06T07:29:59.450Z,292
2017-02-06T07:31:09.328Z,292
2017-02-06T07:32:18.802Z,296
2017-02-06T07:33:29.046Z,296
2017-02-06T07:34:39.292Z,304
2017-02-06T07:35:49.440Z,312
2017-02-06T07:36:59.718Z,304
2017-02-06T07:38:09.570Z,300
2017-02-06T07:39:19.803Z,324
2017-02-06T07:40:29.661Z,332
2017-02-06T07:41:40.186Z,336
2017-02-06T07:42:50.439Z,324
2017-02-06T07:44:00.271Z,336
2017-02-06T07:45:10.570Z,340
2017-02-06T07:46:20.403Z,328
2017-02-06T07:47:30.540Z,336
2017-02-06T07:48:39.989Z,332
2017-02-06T07:49:49.549Z,340
2017-02-06T07:50:59.383Z,356
2017-02-06T07:52:09.618Z,368
2017-02-06T07:53:18.909Z,368
2017-02-06T07:54:28.803Z,412
2017-02-06T07:55:38.663Z,444
2017-02-06T07:56:48.544Z,448
2017-02-06T07:57:58.916Z,448
2017-02-06T07:59:09.479Z,468
2017-02-06T08:00:19.387Z,468
2017-02-06T08:01:29.274Z,468
2017-02-06T08:02:39.548Z,544
2017-02-06T08:03:49.797Z,544
2017-02-06T08:05:00.445Z,520
2017-02-06T08:06:10.297Z,496
2017-02-06T08:07:20.579Z,592
2017-02-06T08:08:30.432Z,580
2017-02-06T08:09:39.872Z,616
2017-02-06T08:10:50.361Z,716
2017-02-06T08:12:00.215Z,636
2017-02-06T08:13:10.491Z,676
2017-02-06T08:14:20.419Z,836
2017-02-06T08:15:30.756Z,768
2017-02-06T08:16:40.924Z,800
2017-02-06T08:17:50.771Z,916
2017-02-06T08:19:00.633Z,1000
2017-02-06T08:20:10.892Z,1036
2017-02-06T08:21:21.149Z,1208
2017-02-06T08:22:31.279Z,1144
2017-02-06T08:23:41.261Z,1288
2017-02-06T08:24:51.546Z,1228
2017-02-06T08:26:01.789Z,1276
2017-02-06T08:27:12.090Z,1168
2017-02-06T08:28:22.648Z,1192
2017-02-06T08:29:32.920Z,1304
2017-02-06T08:30:42.765Z,1260
2017-02-06T08:31:53.070Z,1328
2017-02-06T08:33:02.939Z,1348
2017-02-06T08:34:13.071Z,1284
2017-02-06T08:35:23.364Z,1344
2017-02-06T08:36:33.255Z,1304
2017-02-06T08:37:43.092Z,1228
2017-02-06T08:38:53.318Z,1312
2017-02-06T08:40:03.862Z,1168
2017-02-06T08:41:13.306Z,1176
2017-02-06T08:42:23.562Z,1352
2017-02-06T08:43:33.469Z,1336
2017-02-06T08:44:42.931Z,1356
2017-02-06T08:45:53.494Z,1500
2017-02-06T08:47:03.744Z,1624
2017-02-06T08:48:13.177Z,1720
2017-02-06T08:49:23.044Z,1900
2017-02-06T08:50:33.523Z,1884
2017-02-06T08:51:43.949Z,1852
2017-02-06T08:52:53.401Z,1664
2017-02-06T08:54:03.642Z,1472
2017-02-06T08:55:13.886Z,1308
2017-02-06T08:56:23.767Z,1244
2017-02-06T08:57:33.915Z,1132
2017-02-06T08:58:44.216Z,1224
2017-02-06T08:59:54.473Z,1176
2017-02-06T09:01:04.726Z,1316
2017-02-06T09:02:14.964Z,1252
2017-02-06T09:03:25.168Z,1208
2017-02-06T09:04:35.005Z,1148
2017-02-06T09:05:44.894Z,1300
2017-02-06T09:06:54.787Z,1348
2017-02-06T09:08:04.227Z,1276
2017-02-06T09:09:14.410Z,1312
2017-02-06T09:10:24.281Z,1380
2017-02-06T09:11:34.764Z,1356
2017-02-06T09:12:45.108Z,1384
2017-02-06T09:13:54.962Z,1364
2017-02-06T09:15:05.533Z,1392
2017-02-06T09:16:15.788Z,1520
2017-02-06T09:17:25.647Z,1628
2017-02-06T09:18:35.116Z,1588
2017-02-06T09:19:45.388Z,1528
2017-02-06T09:20:56.199Z,1584
2017-02-06T09:22:06.473Z,1824
2017-02-06T09:23:16.863Z,2016
2017-02-06T09:24:26.332Z,2100
2017-02-06T09:25:35.916Z,1744
2017-02-06T09:26:46.429Z,1672
2017-02-06T09:27:55.510Z,1688
2017-02-06T09:29:04.946Z,1708
2017-02-06T09:30:15.230Z,2124
2017-02-06T09:31:25.547Z,1920
2017-02-06T09:32:36.220Z,1768
2017-02-06T09:33:46.099Z,2028
2017-02-06T09:34:55.955Z,1972
2017-02-06T09:36:06.241Z,1804
2017-02-06T09:37:16.492Z,1796
2017-02-06T09:38:27.268Z,1876
2017-02-06T09:39:37.549Z,2116
2017-02-06T09:40:51.042Z,2128
2017-02-06T09:42:01.296Z,2388
2017-02-06T09:43:10.892Z,2364
2017-02-06T09:44:21.043Z,2240
2017-02-06T09:45:30.892Z,2532
2017-02-06T09:46:41.169Z,2472
2017-02-06T09:47:51.047Z,2524
2017-02-06T09:49:01.349Z,2416
2017-02-06T09:50:11.891Z,2272
2017-02-06T09:51:22.238Z,2312
2017-02-06T09:52:32.149Z,2456
2017-02-06T09:53:41.986Z,2812
2017-02-06T09:54:52.232Z,2892
2017-02-06T09:56:02.050Z,2620
2017-02-06T09:57:11.925Z,2480
2017-02-06T09:58:22.249Z,2868
2017-02-06T09:59:32.501Z,2280
2017-02-06T10:00:42.786Z,2508
2017-02-06T10:01:52.953Z,2480
2017-02-06T10:03:03.196Z,2112
2017-02-06T10:04:13.059Z,2484
2017-02-06T10:05:23.294Z,2536
2017-02-06T10:06:33.205Z,2020
2017-02-06T10:07:43.744Z,1900
2017-02-06T10:08:54.051Z,1824
2017-02-06T10:10:04.309Z,1704
2017-02-06T10:11:14.152Z,1500
2017-02-06T10:12:23.992Z,1336
2017-02-06T10:13:34.130Z,1488
2017-02-06T10:14:43.992Z,1948
2017-02-06T10:15:53.465Z,2468
2017-02-06T10:17:03.863Z,2112
2017-02-06T10:18:13.818Z,2824
2017-02-06T10:19:24.349Z,3464
2017-02-06T10:20:34.356Z,3464
2017-02-06T10:21:44.327Z,3936
2017-02-06T10:22:57.716Z,3596
2017-02-06T10:24:07.956Z,3300
2017-02-06T10:25:18.503Z,2832
2017-02-06T10:26:28.391Z,2956
2017-02-06T10:27:38.271Z,3012
2017-02-06T10:28:48.591Z,2524
2017-02-06T10:29:58.589Z,1968
2017-02-06T10:31:08.265Z,1704
2017-02-06T10:32:18.155Z,1636
2017-02-06T10:33:28.440Z,1536
2017-02-06T10:34:38.837Z,1612
2017-02-06T10:35:49.126Z,1480
2017-02-06T10:36:59.683Z,1576
2017-02-06T10:38:09.930Z,1688
2017-02-06T10:39:19.382Z,1764
2017-02-06T10:40:29.645Z,1856
2017-02-06T10:41:39.162Z,1688
2017-02-06T10:42:49.808Z,1804
2017-02-06T10:44:00.087Z,1764
2017-02-06T10:45:09.539Z,1800
2017-02-06T10:46:19.824Z,1788
2017-02-06T10:47:29.684Z,1768
2017-02-06T10:48:39.841Z,1548
2017-02-06T10:49:50.164Z,1472
2017-02-06T10:50:59.624Z,1416
2017-02-06T10:52:09.870Z,1388
2017-02-06T10:53:19.762Z,1528
2017-02-06T10:54:29.212Z,1688
2017-02-06T10:55:39.469Z,1812
2017-02-06T10:56:49.756Z,1860
2017-02-06T10:58:00.044Z,2040
2017-02-06T10:59:09.902Z,2216
2017-02-06T11:00:20.757Z,2256
2017-02-06T11:01:30.650Z,2220
2017-02-06T11:02:40.904Z,2372
2017-02-06T11:03:50.817Z,2576
2017-02-06T11:05:01.165Z,2828
2017-02-06T11:06:11.756Z,2972
2017-02-06T11:07:22.081Z,3008
2017-02-06T11:08:32.344Z,2980
2017-02-06T11:09:42.221Z,2928
2017-02-06T11:10:52.132Z,2876
2017-02-06T11:12:02.297Z,2684
2017-02-06T11:13:12.575Z,2636
2017-02-06T11:14:22.840Z,2656
2017-02-06T11:15:32.740Z,2716
2017-02-06T11:16:43.045Z,2508
2017-02-06T11:17:53.591Z,2400
2017-02-06T11:19:03.916Z,2060
2017-02-06T11:20:14.181Z,1996
2017-02-06T11:21:24.095Z,1944
2017-02-06T11:22:34.025Z,2044
2017-02-06T11:23:44.603Z,1976
2017-02-06T11:24:54.857Z,1860
2017-02-06T11:26:05.149Z,1852
2017-02-06T11:27:15.412Z,2132
2017-02-06T11:28:25.304Z,2336
2017-02-06T11:29:35.470Z,2276
2017-02-06T11:30:45.310Z,2304
2017-02-06T11:31:55.324Z,2292
2017-02-06T11:33:05.602Z,2328
2017-02-06T11:34:15.917Z,2252
2017-02-06T11:35:26.074Z,2508
2017-02-06T11:36:35.988Z,2400
2017-02-06T11:37:45.823Z,2384
2017-02-06T11:38:56.126Z,2660
2017-02-06T11:40:06.016Z,2540
2017-02-06T11:41:16.562Z,2532
2017-02-06T11:42:26.875Z,2552
2017-02-06T11:43:37.118Z,2264
2017-02-06T11:44:47.410Z,2116
2017-02-06T11:45:57.365Z,2032
2017-02-06T11:47:07.605Z,1956
2017-02-06T11:48:17.497Z,1784
2017-02-06T11:49:27.362Z,1660
2017-02-06T11:50:37.631Z,1760
2017-02-06T11:51:47.886Z,2016
2017-02-06T11:52:58.504Z,2312
2017-02-06T11:54:08.377Z,2380
2017-02-06T11:55:18.655Z,2184
2017-02-06T11:56:28.913Z,2004
2017-02-06T11:57:39.318Z,1984
2017-02-06T11:58:49.980Z,2144
2017-02-06T12:00:00.227Z,2404
2017-02-06T12:01:10.489Z,2552
2017-02-06T12:02:20.368Z,2576
2017-02-06T12:03:30.255Z,2516
2017-02-06T12:04:40.890Z,2448
2017-02-06T12:05:50.768Z,2452
2017-02-06T12:07:01.084Z,2476
2017-02-06T12:08:11.445Z,2500
2017-02-06T12:09:20.918Z,2332
2017-02-06T12:10:31.601Z,2336
2017-02-06T12:11:41.885Z,2468
2017-02-06T12:12:52.170Z,2448
2017-02-06T12:14:02.435Z,2380
2017-02-06T12:15:12.302Z,2448
2017-02-06T12:16:22.836Z,2576
2017-02-06T12:17:33.135Z,2384
2017-02-06T12:18:43.065Z,2180
2017-02-06T12:19:53.344Z,2236
2017-02-06T12:21:03.639Z,1944
2017-02-06T12:22:14.309Z,1952
2017-02-06T12:23:24.587Z,2132
2017-02-06T12:24:34.462Z,2604
2017-02-06T12:25:44.470Z,2680
2017-02-06T12:26:54.724Z,2744
2017-02-06T12:28:05.318Z,2744
2017-02-06T12:29:15.203Z,2856
2017-02-06T12:30:25.063Z,2648
2017-02-06T12:31:35.345Z,2564
2017-02-06T12:32:45.666Z,2632
2017-02-06T12:33:56.273Z,2732
2017-02-06T12:35:06.593Z,2776
2017-02-06T12:36:16.478Z,2652
2017-02-06T12:37:26.774Z,2472
2017-02-06T12:38:37.081Z,2596
2017-02-06T12:39:47.655Z,2532
2017-02-06T12:40:57.929Z,2544
2017-02-06T12:42:08.286Z,2672
2017-02-06T12:43:18.161Z,2896
2017-02-06T12:44:27.226Z,3040
2017-02-06T12:45:37.737Z,3164
2017-02-06T12:46:48.068Z,3248
2017-02-06T12:47:58.395Z,3384
2017-02-06T12:49:08.472Z,3476
2017-02-06T12:50:18.813Z,3552
2017-02-06T12:51:29.597Z,3560
2017-02-06T12:52:39.455Z,3208
2017-02-06T12:53:49.764Z,2388
2017-02-06T12:54:59.657Z,2476
2017-02-06T12:56:09.990Z,2632
2017-02-06T12:57:20.628Z,2184
2017-02-06T12:58:30.482Z,1680
2017-02-06T12:59:39.951Z,1556
2017-02-06T13:00:50.254Z,1436
2017-02-06T13:02:00.139Z,1564
2017-02-06T13:03:10.296Z,1472
2017-02-06T13:04:20.572Z,1472
2017-02-06T13:05:30.935Z,1412
2017-02-06T13:06:41.216Z,1384
2017-02-06T13:07:51.521Z,1356
2017-02-06T13:09:02.190Z,1516
2017-02-06T13:10:12.596Z,1592
2017-02-06T13:11:22.440Z,1484
2017-02-06T13:12:32.824Z,1532
2017-02-06T13:13:42.699Z,1448
2017-02-06T13:14:53.406Z,1644
2017-02-06T13:16:03.680Z,1564
2017-02-06T13:17:13.973Z,1448
2017-02-06T13:18:24.245Z,1480
2017-02-06T13:19:34.215Z,1524
2017-02-06T13:20:44.929Z,1420
2017-02-06T13:21:55.208Z,1352
2017-02-06T13:23:05.579Z,1356
2017-02-06T13:24:15.476Z,1356
2017-02-06T13:25:25.764Z,1264
2017-02-06T13:26:36.346Z,1236
2017-02-06T13:27:45.796Z,1228
2017-02-06T13:28:56.100Z,1232
2017-02-06T13:30:06.381Z,1196
2017-02-06T13:31:16.776Z,1172
2017-02-06T13:32:26.171Z,1128
2017-02-06T13:33:36.477Z,1092
2017-02-06T13:34:46.743Z,1136
2017-02-06T13:35:56.248Z,1132
2017-02-06T13:37:06.113Z,1128
2017-02-06T13:38:16.686Z,1112
2017-02-06T13:39:27.006Z,1096
2017-02-06T13:40:37.306Z,1208
2017-02-06T13:41:47.567Z,1196
2017-02-06T13:42:57.527Z,1164
2017-02-06T13:44:07.735Z,1148
2017-02-06T13:45:18.051Z,1096
2017-02-06T13:46:27.937Z,1032
2017-02-06T13:47:37.840Z,1032
2017-02-06T13:48:48.183Z,1080
2017-02-06T13:49:58.817Z,1076
2017-02-06T13:51:09.104Z,1060
2017-02-06T13:52:19.354Z,1068
2017-02-06T13:53:29.265Z,1176
2017-02-06T13:54:39.536Z,1176
2017-02-06T13:55:50.135Z,1216
2017-02-06T13:56:59.975Z,1208
2017-02-06T13:58:09.880Z,1140
2017-02-06T13:59:20.147Z,1116
2017-02-06T14:00:30.395Z,1080
2017-02-06T14:01:41.020Z,1040
2017-02-06T14:02:51.278Z,1020
2017-02-06T14:04:01.604Z,964
2017-02-06T14:05:11.474Z,980
2017-02-06T14:06:21.412Z,924
2017-02-06T14:07:31.941Z,992
2017-02-06T14:08:42.267Z,952
2017-02-06T14:09:51.754Z,924
2017-02-06T14:11:01.631Z,924
2017-02-06T14:12:11.996Z,896
2017-02-06T14:13:22.749Z,908
2017-02-06T14:14:33.012Z,908
2017-02-06T14:15:42.894Z,836
2017-02-06T14:16:52.785Z,788
2017-02-06T14:18:03.088Z,792
2017-02-06T14:19:13.650Z,852
2017-02-06T14:20:24.085Z,832
2017-02-06T14:21:34.369Z,840
2017-02-06T14:22:44.492Z,812
2017-02-06T14:23:54.742Z,776
2017-02-06T14:25:04.893Z,716
2017-02-06T14:26:15.326Z,696
2017-02-06T14:27:25.012Z,744
2017-02-06T14:28:35.251Z,744
2017-02-06T14:29:45.551Z,772
2017-02-06T14:30:56.182Z,760
2017-02-06T14:32:06.481Z,728
2017-02-06T14:33:16.844Z,724
2017-02-06T14:34:27.129Z,692
2017-02-06T14:35:36.583Z,656
2017-02-06T14:36:46.742Z,624
2017-02-06T14:37:56.743Z,568
2017-02-06T14:39:07.058Z,544
2017-02-06T14:40:17.340Z,560
2017-02-06T14:41:27.640Z,564
2017-02-06T14:42:38.222Z,572
2017-02-06T14:43:48.763Z,556
2017-02-06T14:44:59.115Z,596
2017-02-06T14:46:09.049Z,628
2017-02-06T14:47:19.063Z,636
2017-02-06T14:48:29.623Z,588
2017-02-06T14:49:39.979Z,616
2017-02-06T14:50:50.287Z,636
2017-02-06T14:52:00.587Z,604
2017-02-06T14:53:10.456Z,588
2017-02-06T14:54:21.044Z,552
2017-02-06T14:55:30.907Z,620
2017-02-06T14:56:40.773Z,636
2017-02-06T14:57:50.230Z,648
2017-02-06T14:58:59.591Z,636
2017-02-06T15:00:10.155Z,640
2017-02-06T15:01:20.056Z,604
2017-02-06T15:02:29.944Z,516
2017-02-06T15:03:40.320Z,568
2017-02-06T15:04:50.635Z,540
2017-02-06T15:06:01.185Z,580
2017-02-06T15:07:11.108Z,616
2017-02-06T15:08:21.460Z,572
2017-02-06T15:09:31.739Z,572
2017-02-06T15:10:42.354Z,548
2017-02-06T15:11:52.892Z,476
2017-02-06T15:13:03.191Z,488
2017-02-06T15:14:13.529Z,484
2017-02-06T15:15:23.827Z,452
2017-02-06T15:16:33.718Z,412
2017-02-06T15:17:44.303Z,384
2017-02-06T15:18:54.744Z,360
2017-02-06T15:20:04.226Z,332
2017-02-06T15:21:14.203Z,324
2017-02-06T15:22:24.485Z,320
2017-02-06T15:23:35.027Z,316
2017-02-06T15:24:45.324Z,304
2017-02-06T15:25:55.254Z,284
2017-02-06T15:27:05.535Z,260
2017-02-06T15:28:15.424Z,240
2017-02-06T15:29:25.944Z,232
2017-02-06T15:30:36.248Z,216
2017-02-06T15:31:46.133Z,196
2017-02-06T15:32:56.093Z,196
2017-02-06T15:34:05.960Z,192
2017-02-06T15:35:16.505Z,192
2017-02-06T15:36:26.365Z,192
2017-02-06T15:37:36.643Z,192
2017-02-06T15:38:46.921Z,188
2017-02-06T15:39:56.379Z,180
2017-02-06T15:41:06.611Z,172
2017-02-06T15:42:16.969Z,172
2017-02-06T15:43:27.338Z,168
2017-02-06T15:44:37.435Z,164
2017-02-06T15:45:47.716Z,160
2017-02-06T15:46:58.284Z,160
2017-02-06T15:48:08.346Z,152
2017-02-06T15:49:18.635Z,148
2017-02-06T15:50:28.901Z,136
2017-02-06T15:51:39.332Z,128
2017-02-06T15:52:49.899Z,128
2017-02-06T15:54:00.210Z,116
2017-02-06T15:55:10.708Z,116
2017-02-06T15:56:20.639Z,116
2017-02-06T15:57:30.901Z,108
2017-02-06T15:58:41.456Z,100
2017-02-06T15:59:51.332Z,100
2017-02-06T16:01:01.180Z,96
2017-02-06T16:02:10.630Z,88
2017-02-06T16:03:20.573Z,84
2017-02-06T16:04:31.288Z,76
2017-02-06T16:05:41.173Z,68
2017-02-06T16:06:51.523Z,64
2017-02-06T16:08:01.848Z,64
2017-02-06T16:09:12.145Z,56
2017-02-06T16:10:21.839Z,56
2017-02-06T16:11:32.129Z,48
2017-02-06T16:12:42.359Z,48
2017-02-06T16:13:52.679Z,40
2017-02-06T16:15:03.109Z,36
2017-02-06T16:16:13.617Z,36
2017-02-06T16:17:23.882Z,32
2017-02-06T16:18:34.212Z,28
2017-02-06T16:19:44.187Z,28
2017-02-06T16:20:54.550Z,24
2017-02-06T16:22:05.103Z,20
2017-02-06T16:23:15.371Z,20
2017-02-06T16:24:25.266Z,16
2017-02-06T16:25:35.539Z,12
2017-02-06T16:26:45.422Z,12
2017-02-06T16:27:56.007Z,12
2017-02-06T16:29:06.262Z,12
2017-02-06T16:30:16.537Z,8
2017-02-06T16:31:26.529Z,4
2017-02-06T16:32:36.862Z,4
2017-02-06T16:33:47.425Z,0
2017-02-06T16:34:57.684Z,4
2017-02-06T16:36:07.553Z,0
2017-02-06T16:37:17.844Z,4
2017-02-06T16:38:27.763Z,4
2017-02-06T16:39:37.796Z,0
2017-02-06T16:40:47.708Z,0
2017-02-06T16:41:58.011Z,0
2017-02-06T16:43:08.362Z,0
2017-02-06T16:44:18.300Z,0
2017-02-06T16:45:28.919Z,0
2017-02-06T16:46:39.200Z,0
2017-02-06T16:47:49.119Z,0
2017-02-06T16:48:59.536Z,0
2017-02-06T16:50:09.848Z,0
2017-02-06T16:51:19.990Z,0
2017-02-06T16:52:30.305Z,0
2017-02-06T16:53:40.174Z,0
2017-02-06T16:54:50.223Z,0
2017-02-06T16:56:00.490Z,0
2017-02-06T16:57:11.114Z,0
2017-02-06T16:58:21.479Z,0
2017-02-06T16:59:30.953Z,0
2017-02-06T17:00:41.256Z,0
2017-02-06T17:01:51.535Z,0
2017-02-06T17:03:01.691Z,0
2017-02-06T17:04:11.977Z,0
2017-02-06T17:05:22.242Z,0
2017-02-06T17:06:32.563Z,0
2017-02-06T17:07:42.443Z,0
2017-02-06T17:08:52.963Z,0
2017-02-06T17:10:03.223Z,0
2017-02-06T17:11:13.507Z,0
2017-02-06T17:12:23.834Z,0
2017-02-06T17:13:34.129Z,0
2017-02-06T17:14:44.695Z,0
2017-02-06T17:15:55.108Z,0
2017-02-06T17:17:04.994Z,0
2017-02-06T17:18:14.885Z,0
2017-02-06T17:19:25.138Z,0
2017-02-06T17:20:35.785Z,0
2017-02-06T17:21:46.070Z,0
2017-02-06T17:22:55.972Z,0
2017-02-06T17:24:05.918Z,0
2017-02-06T17:25:16.219Z,0
2017-02-06T17:26:26.375Z,0
2017-02-06T17:27:36.660Z,0
2017-02-06T17:28:46.130Z,0
2017-02-06T17:29:56.052Z,0
2017-02-06T17:31:06.360Z,0
2017-02-06T17:32:17.006Z,0
2017-02-06T17:33:26.919Z,0
2017-02-06T17:34:37.270Z,0
2017-02-06T17:35:47.188Z,0
2017-02-06T17:36:57.118Z,0
2017-02-06T17:38:07.697Z,0
2017-02-06T17:39:17.281Z,0
2017-02-06T17:40:27.264Z,0
2017-02-06T17:41:37.564Z,0
2017-02-06T17:42:47.053Z,0
2017-02-06T17:43:57.623Z,0
2017-02-06T17:45:07.936Z,0
2017-02-06T17:46:18.219Z,0
2017-02-06T17:47:28.505Z,0
2017-02-06T17:48:38.961Z,0
2017-02-06T17:49:49.583Z,0
2017-02-06T17:50:59.474Z,0
2017-02-06T17:52:09.864Z,0
2017-02-06T17:53:20.179Z,0
2017-02-06T17:54:30.113Z,0
2017-02-06T17:55:40.646Z,0
2017-02-06T17:56:50.982Z,0
2017-02-06T17:58:00.519Z,0
2017-02-06T17:59:10.862Z,0
2017-02-06T18:00:21.181Z,0
2017-02-06T18:01:32.031Z,0
2017-02-06T18:02:41.924Z,0
2017-02-06T18:03:52.299Z,0
2017-02-06T18:05:02.237Z,0
2017-02-06T18:06:12.569Z,0
2017-02-06T18:07:23.071Z,0
2017-02-06T18:08:33.424Z,0
2017-02-06T18:09:43.785Z,0
2017-02-06T18:10:54.200Z,0
2017-02-06T18:12:04.774Z,0
2017-02-06T18:13:15.298Z,0
2017-02-06T18:14:25.590Z,0
2017-02-06T18:15:35.893Z,0
2017-02-06T18:16:46.249Z,0
2017-02-06T18:17:56.617Z,0
2017-02-06T18:19:06.733Z,0
2017-02-06T18:20:16.198Z,0
2017-02-06T18:21:26.510Z,0
2017-02-06T18:22:36.476Z,0
2017-02-06T18:23:46.767Z,0
2017-02-06T18:24:57.327Z,0
2017-02-06T18:26:07.619Z,0
2017-02-06T18:27:18.137Z,0
2017-02-06T18:28:27.992Z,0
2017-02-06T18:29:38.257Z,0
2017-02-06T18:30:47.980Z,0
2017-02-06T18:31:59.953Z,0
2017-02-06T18:33:15.117Z,0
2017-02-06T18:34:30.701Z,0
2017-02-06T18:35:44.643Z,0
2017-02-06T18:36:58.771Z,0
2017-02-06T18:38:15.478Z,0
2017-02-06T18:39:29.193Z,0
2017-02-06T18:40:43.456Z,0
2017-02-06T18:41:56.230Z,0
2017-02-06T18:43:09.425Z,0
2017-02-06T18:44:23.314Z,0
2017-02-06T18:45:36.088Z,0
2017-02-06T18:46:51.508Z,0
2017-02-06T18:48:06.620Z,0
2017-02-06T18:49:20.577Z,0
2017-02-06T18:50:30.873Z,0
2017-02-06T18:51:41.246Z,0
2017-02-06T18:52:51.525Z,0
2017-02-06T18:54:01.864Z,0
2017-02-06T18:55:12.350Z,0
2017-02-06T18:56:22.679Z,0
2017-02-06T18:57:32.997Z,0
2017-02-06T18:58:42.115Z,0
2017-02-06T18:59:52.459Z,0
2017-02-06T19:01:02.679Z,0
2017-02-06T19:02:13.071Z,0
2017-02-06T19:03:23.439Z,0
2017-02-06T19:04:33.860Z,0
2017-02-06T19:05:44.266Z,0
2017-02-06T19:06:54.480Z,0
2017-02-06T19:08:04.801Z,0
2017-02-06T19:09:14.725Z,0
2017-02-06T19:10:25.066Z,0
2017-02-06T19:11:35.433Z,0
2017-02-06T19:12:46.023Z,0
2017-02-06T19:13:56.560Z,0
2017-02-06T19:15:07.056Z,0
2017-02-06T19:16:17.347Z,0
2017-02-06T19:17:27.294Z,0
2017-02-06T19:18:38.067Z,0
2017-02-06T19:19:48.348Z,0
2017-02-06T19:20:58.275Z,0
2017-02-06T19:22:08.187Z,0
2017-02-06T19:23:18.132Z,0
2017-02-06T19:24:28.770Z,0
2017-02-06T19:25:39.053Z,0
2017-02-06T19:26:49.325Z,0
2017-02-06T19:28:00.219Z,0
2017-02-06T19:29:10.116Z,0
2017-02-06T19:30:20.696Z,0
2017-02-06T19:31:31.045Z,0
2017-02-06T19:32:41.094Z,0
2017-02-06T19:33:51.420Z,0
2017-02-06T19:35:00.879Z,0
2017-02-06T19:36:11.430Z,0
2017-02-06T19:37:21.337Z,0
2017-02-06T19:38:31.601Z,0
2017-02-06T19:39:41.784Z,0
2017-02-06T19:40:52.076Z,0
2017-02-06T19:42:02.664Z,0
2017-02-06T19:43:13.075Z,0
2017-02-06T19:44:22.950Z,0
2017-02-06T19:45:33.345Z,0
2017-02-06T19:46:43.636Z,0
2017-02-06T19:47:54.226Z,0
2017-02-06T19:49:04.583Z,0
2017-02-06T19:50:14.899Z,0
2017-02-06T19:51:25.226Z,0
2017-02-06T19:52:35.480Z,0
2017-02-06T19:53:45.757Z,0
2017-02-06T19:54:56.389Z,0
2017-02-06T19:56:06.403Z,0
2017-02-06T19:57:16.792Z,0
2017-02-06T19:58:27.162Z,0
2017-02-06T19:59:37.340Z,0
2017-02-06T20:00:47.667Z,0
2017-02-06T20:01:57.561Z,0
2017-02-06T20:03:07.885Z,0
2017-02-06T20:04:18.278Z,0
2017-02-06T20:05:28.913Z,0
2017-02-06T20:06:38.966Z,0
2017-02-06T20:07:49.340Z,0
2017-02-06T20:08:59.219Z,0
2017-02-06T20:10:09.126Z,0
2017-02-06T20:11:19.695Z,0
2017-02-06T20:12:29.989Z,0
2017-02-06T20:13:40.312Z,0
2017-02-06T20:14:49.881Z,0
2017-02-06T20:16:00.187Z,0
2017-02-06T20:17:10.798Z,0
2017-02-06T20:18:21.169Z,0
2017-02-06T20:19:31.038Z,0
2017-02-06T20:20:41.001Z,0
2017-02-06T20:21:50.473Z,0
2017-02-06T20:23:01.019Z,0
2017-02-06T20:24:11.308Z,0
2017-02-06T20:25:21.667Z,0
2017-02-06T20:26:32.024Z,0
2017-02-06T20:27:42.373Z,0
2017-02-06T20:28:52.800Z,0
2017-02-06T20:30:02.801Z,0
2017-02-06T20:31:13.097Z,0
2017-02-06T20:32:23.007Z,0
2017-02-06T20:34:05.380Z,0
2017-02-06T20:35:15.281Z,0
2017-02-06T20:36:25.163Z,0
2017-02-06T20:37:35.481Z,0
2017-02-06T20:38:45.846Z,0
2017-02-06T20:39:56.102Z,0
2017-02-06T20:41:06.385Z,0
2017-02-06T20:42:16.735Z,0
2017-02-06T20:43:27.245Z,0
2017-02-06T20:44:37.128Z,0
2017-02-06T20:45:47.299Z,0
2017-02-06T20:46:57.205Z,0
2017-02-06T20:48:07.522Z,0
2017-02-06T20:49:17.012Z,0
2017-02-06T20:50:59.369Z,0
2017-02-06T20:52:09.699Z,0
2017-02-06T20:53:20.043Z,0
2017-02-06T20:54:30.456Z,0
2017-02-06T20:55:40.358Z,0
2017-02-06T20:56:50.498Z,0
2017-02-06T20:58:00.362Z,0
2017-02-06T20:59:10.374Z,0
2017-02-06T21:00:20.216Z,0
2017-02-06T21:01:30.562Z,0
2017-02-06T21:02:40.334Z,0
2017-02-06T21:03:50.681Z,0
2017-02-06T21:05:00.194Z,0
2017-02-06T21:06:09.660Z,0
2017-02-06T21:07:19.527Z,0
2017-02-06T21:08:30.028Z,0
2017-02-06T21:09:39.990Z,0
2017-02-06T21:10:50.321Z,0
2017-02-06T21:12:00.227Z,0
2017-02-06T21:13:10.164Z,0
2017-02-06T21:14:20.289Z,0
2017-02-06T21:15:30.608Z,0
2017-02-06T21:16:40.949Z,0
2017-02-06T21:17:50.408Z,0
2017-02-06T21:19:00.695Z,0
2017-02-06T21:20:11.223Z,0
2017-02-06T21:21:21.173Z,0
2017-02-06T21:22:31.036Z,0
2017-02-06T21:23:41.342Z,0
2017-02-06T21:24:51.626Z,0
2017-02-06T21:26:01.854Z,0
2017-02-06T21:27:12.165Z,0
2017-02-06T21:28:22.463Z,0
2017-02-06T21:29:32.913Z,0
2017-02-06T21:30:43.220Z,0
2017-02-06T21:31:52.919Z,0
2017-02-06T21:33:03.239Z,0
2017-02-06T21:34:13.572Z,0
2017-02-06T21:35:23.871Z,0
2017-02-06T21:36:32.918Z,0
2017-02-06T21:37:43.492Z,0
2017-02-06T21:39:17.082Z,0
2017-02-06T21:40:27.116Z,0
2017-02-06T21:41:36.978Z,0
2017-02-06T21:42:47.158Z,0
2017-02-06T21:43:57.556Z,0
2017-02-06T21:45:11.129Z,0
2017-02-06T21:46:21.440Z,0
2017-02-06T21:47:30.950Z,0
2017-02-06T21:48:41.148Z,0
2017-02-06T21:49:51.585Z,0
2017-02-06T21:51:01.894Z,0
2017-02-06T21:52:11.739Z,0
2017-02-06T21:53:21.219Z,0
2017-02-06T21:54:31.798Z,0
2017-02-06T21:55:41.716Z,0
2017-02-06T21:56:51.997Z,0
2017-02-06T21:58:02.593Z,0
2017-02-06T21:59:12.862Z,0
2017-02-06T22:00:23.047Z,0
2017-02-06T22:01:33.356Z,0
2017-02-06T22:02:43.229Z,0
2017-02-06T22:03:52.399Z,0
2017-02-06T22:05:02.687Z,0
2017-02-06T22:06:13.291Z,0
2017-02-06T22:07:23.668Z,0
2017-02-06T22:08:34.073Z,0
2017-02-06T22:09:44.425Z,0
2017-02-06T22:10:54.368Z,0
2017-02-06T22:12:04.475Z,0
2017-02-06T22:13:14.792Z,0
2017-02-06T22:14:24.298Z,0
2017-02-06T22:15:34.191Z,0
2017-02-06T22:16:44.512Z,0
2017-02-06T22:17:54.679Z,0
2017-02-06T22:19:04.536Z,0
2017-02-06T22:20:14.916Z,0
2017-02-06T22:21:24.843Z,0
2017-02-06T22:22:34.734Z,0
2017-02-06T22:23:45.245Z,0
2017-02-06T22:24:55.508Z,0
2017-02-06T22:26:05.387Z,0
2017-02-06T22:27:15.671Z,0
2017-02-06T22:28:25.930Z,0
2017-02-06T22:29:36.505Z,0
2017-02-06T22:30:46.384Z,0
2017-02-06T22:31:56.261Z,0
2017-02-06T22:33:06.114Z,0
2017-02-06T22:34:16.051Z,0
2017-02-06T22:35:26.684Z,0
2017-02-06T22:36:36.595Z,0
2017-02-06T22:37:46.882Z,0
2017-02-06T22:38:57.383Z,0